createdAt,value
2023-03-03T00:01:10.879Z,20.20
2023-03-03T00:06:14.608Z,19.75
2023-03-03T00:11:16.418Z,20.70
2023-03-03T00:16:31.292Z,21.75
2023-03-03T00:21:44.961Z,22.10
2023-03-03T00:26:51.372Z,20.25
2023-03-03T00:31:52.959Z,21.15
2023-03-03T00:36:57.302Z,21.55
2023-03-03T00:41:59.741Z,22.52
2023-03-03T00:47:30.696Z,21.80
2023-03-03T00:52:38.727Z,21.02
2023-03-03T00:57:40.246Z,23.35
2023-03-03T01:02:44.960Z,22.38
2023-03-03T01:07:46.654Z,23.98
2023-03-03T01:12:49.042Z,23.58
2023-03-03T01:17:51.093Z,23.33
2023-03-03T01:22:52.634Z,23.30
2023-03-03T01:27:54.582Z,23.55
2023-03-03T01:32:56.216Z,26.52
2023-03-03T01:37:59.158Z,26.95
2023-03-03T01:43:01.329Z,27.60
2023-03-03T01:48:09.770Z,27.67
2023-03-03T01:53:38.954Z,27.30
2023-03-03T01:58:46.693Z,25.13
2023-03-03T02:03:48.791Z,26.30
2023-03-03T02:08:53.667Z,27.88
2023-03-03T02:13:55.383Z,27.45
2023-03-03T02:18:58.275Z,28.33
2023-03-03T02:24:06.871Z,27.83
2023-03-03T02:29:10.524Z,29.58
2023-03-03T02:34:15.377Z,28.77
2023-03-03T02:39:23.229Z,30.15
2023-03-03T02:44:28.362Z,30.77
2023-03-03T02:49:32.622Z,31.63
2023-03-03T02:54:34.398Z,32.92
2023-03-03T02:59:37.831Z,32.13
2023-03-03T03:04:44.836Z,29.80
2023-03-03T03:09:50.827Z,22.90
2023-03-03T03:14:52.737Z,28.63
2023-03-03T03:19:54.927Z,29.00
2023-03-03T03:24:57.365Z,30.00
2023-03-03T03:29:59.458Z,30.20
2023-03-03T03:35:02.436Z,29.15
2023-03-03T03:40:05.946Z,30.27
2023-03-03T03:45:08.557Z,29.98
2023-03-03T03:50:12.590Z,29.60
2023-03-03T03:55:14.715Z,30.00
2023-03-03T04:00:17.826Z,32.40
2023-03-03T04:05:26.177Z,30.10
2023-03-03T04:10:29.579Z,30.90
2023-03-03T04:15:32.464Z,33.22
2023-03-03T04:20:35.595Z,31.10
2023-03-03T04:25:37.554Z,32.10
2023-03-03T04:30:47.718Z,32.03
2023-03-03T04:35:52.397Z,30.58
2023-03-03T04:40:54.383Z,32.97
2023-03-03T04:45:58.110Z,34.63
2023-03-03T04:50:59.991Z,31.90
2023-03-03T04:56:02.092Z,30.77
2023-03-03T05:01:04.293Z,32.97
2023-03-03T05:06:08.080Z,32.55
2023-03-03T05:11:09.986Z,33.90
2023-03-03T05:16:11.679Z,30.63
2023-03-03T05:21:13.446Z,31.50
2023-03-03T05:26:15.505Z,32.45
2023-03-03T05:31:17.216Z,35.03
2023-03-03T05:36:19.314Z,33.33
2023-03-03T05:41:21.265Z,32.67
2023-03-03T05:46:23.070Z,31.40
2023-03-03T05:51:25.002Z,31.48
2023-03-03T05:56:26.606Z,28.98
2023-03-03T06:01:28.437Z,26.70
2023-03-03T06:06:30.198Z,26.27
2023-03-03T06:11:32.646Z,25.17
2023-03-03T06:16:35.254Z,25.33
2023-03-03T06:21:37.227Z,25.67
2023-03-03T06:26:44.941Z,25.42
2023-03-03T06:31:46.722Z,24.20
2023-03-03T06:36:48.597Z,24.13
2023-03-03T06:41:50.314Z,24.30
2023-03-03T06:46:52.121Z,23.27
2023-03-03T06:51:54.624Z,22.58
2023-03-03T06:57:16.911Z,22.80
2023-03-03T07:02:19.503Z,20.45
2023-03-03T07:07:24.632Z,19.13
2023-03-03T07:12:31.968Z,22.42
2023-03-03T07:22:54.897Z,18.92
2023-03-03T07:28:08.302Z,19.00
2023-03-03T07:33:26.448Z,17.33
2023-03-03T07:38:46.395Z,18.30
2023-03-03T07:43:48.632Z,15.77
2023-03-03T07:48:53.134Z,15.30
2023-03-03T07:54:14.976Z,15.57
2023-03-03T07:59:30.278Z,15.48
2023-03-03T08:04:45.768Z,15.48
2023-03-03T08:10:29.652Z,14.73
2023-03-03T08:15:37.263Z,14.75
2023-03-03T08:20:46.554Z,13.77
2023-03-03T08:25:49.974Z,14.90
2023-03-03T08:30:54.416Z,12.90
2023-03-03T08:36:08.317Z,13.18
2023-03-03T08:41:10.499Z,15.10
2023-03-03T08:46:12.484Z,12.98
2023-03-03T08:51:14.338Z,13.60
2023-03-03T08:56:16.615Z,13.95
2023-03-03T09:01:19.760Z,12.32
2023-03-03T09:06:24.600Z,12.32
2023-03-03T09:11:34.812Z,12.13
2023-03-03T09:16:46.007Z,12.85
2023-03-03T09:21:48.345Z,12.85
2023-03-03T09:26:51.349Z,13.40
2023-03-03T09:31:59.780Z,12.50
2023-03-03T09:37:28.931Z,12.50
2023-03-03T09:42:58.056Z,12.40
2023-03-03T09:48:25.719Z,12.40
2023-03-03T09:53:53.129Z,15.00
2023-03-03T09:59:16.701Z,12.50
2023-03-03T10:04:57.491Z,13.80
2023-03-03T10:10:29.746Z,15.52
2023-03-03T10:15:50.174Z,13.50
2023-03-03T10:21:09.566Z,11.90
2023-03-03T10:27:09.839Z,9.30
2023-03-03T10:38:33.151Z,10.88
2023-03-03T10:43:55.853Z,9.82
2023-03-03T10:49:25.290Z,9.50
2023-03-03T10:54:54.165Z,9.93
2023-03-03T11:00:15.711Z,10.70
2023-03-03T11:05:26.380Z,11.18
2023-03-03T11:10:42.374Z,11.10
2023-03-03T11:16:07.935Z,10.60
2023-03-03T11:21:18.093Z,12.60
2023-03-03T11:26:23.580Z,10.45
2023-03-03T11:31:31.811Z,8.88
2023-03-03T11:37:01.920Z,9.13
2023-03-03T11:42:10.027Z,10.05
2023-03-03T11:47:30.382Z,9.98
2023-03-03T11:52:49.563Z,12.23
2023-03-03T11:57:58.588Z,11.02
2023-03-03T12:03:29.497Z,11.18
2023-03-03T12:09:05.259Z,11.38
2023-03-03T12:14:17.598Z,11.38
2023-03-03T12:19:25.454Z,13.98
2023-03-03T12:24:45.367Z,17.90
2023-03-03T12:30:05.082Z,17.00
2023-03-03T12:35:10.116Z,17.08
2023-03-03T12:40:20.213Z,17.02
2023-03-03T12:45:53.343Z,15.30
2023-03-03T12:51:40.345Z,17.40
2023-03-03T12:56:49.605Z,19.73
2023-03-03T13:02:06.398Z,20.25
2023-03-03T13:12:24.730Z,20.10
2023-03-03T13:17:38.938Z,20.83
2023-03-03T13:22:59.660Z,21.48
2023-03-03T13:28:17.284Z,20.90
2023-03-03T13:33:35.373Z,19.10
2023-03-03T13:38:47.007Z,19.02
2023-03-03T13:44:33.860Z,17.08
2023-03-03T13:49:55.900Z,18.92
2023-03-03T13:55:21.722Z,17.50
2023-03-03T14:00:37.499Z,16.85
2023-03-03T14:05:40.716Z,16.52
2023-03-03T14:10:47.826Z,14.65
2023-03-03T14:16:11.585Z,15.35
2023-03-03T14:21:26.724Z,15.23
2023-03-03T14:26:28.721Z,16.05
2023-03-03T14:31:40.437Z,17.10
2023-03-03T14:36:44.469Z,19.85
2023-03-03T14:41:46.636Z,18.75
2023-03-03T14:47:06.150Z,20.83
2023-03-03T14:52:17.758Z,20.92
2023-03-03T14:57:37.609Z,19.25
2023-03-03T15:03:03.078Z,18.85
2023-03-03T15:08:05.053Z,17.63
2023-03-03T15:13:13.243Z,18.17
2023-03-03T15:18:15.842Z,21.55
2023-03-03T15:23:55.427Z,21.70
2023-03-03T15:29:07.962Z,20.95
2023-03-03T15:34:44.705Z,20.35
2023-03-03T15:40:16.983Z,19.98
2023-03-03T15:45:27.398Z,21.42
2023-03-03T15:50:45.425Z,20.63
2023-03-03T15:56:27.837Z,19.95
2023-03-03T16:01:33.723Z,19.58
2023-03-03T16:06:57.625Z,18.88
2023-03-03T16:12:31.221Z,18.13
2023-03-03T16:17:56.612Z,18.63
2023-03-03T16:23:19.935Z,18.38
2023-03-03T16:28:31.807Z,18.48
2023-03-03T16:33:44.822Z,16.25
2023-03-03T16:39:04.527Z,16.95
2023-03-03T16:44:40.515Z,18.17
2023-03-03T16:50:04.251Z,16.23
2023-03-03T16:55:15.886Z,19.58
2023-03-03T17:00:29.244Z,15.32
2023-03-03T17:06:16.412Z,18.50
2023-03-03T17:11:37.630Z,18.37
2023-03-03T17:17:09.904Z,15.82
2023-03-03T17:22:18.350Z,17.42
2023-03-03T17:27:44.376Z,17.80
2023-03-03T17:33:12.782Z,17.30
2023-03-03T17:38:33.140Z,18.90
2023-03-03T17:43:51.524Z,17.83
2023-03-03T17:49:18.337Z,17.75
2023-03-03T17:54:48.569Z,13.48
2023-03-03T18:00:19.371Z,20.73
2023-03-03T18:05:49.716Z,20.58
2023-03-03T18:11:15.547Z,20.63
2023-03-03T18:22:16.904Z,23.23
2023-03-03T18:27:28.304Z,24.02
2023-03-03T18:33:06.813Z,22.90
2023-03-03T18:38:23.848Z,23.92
2023-03-03T18:43:45.930Z,22.98
2023-03-03T18:49:12.626Z,26.85
2023-03-03T18:54:17.053Z,19.23
2023-03-03T18:59:36.446Z,26.75
2023-03-03T19:04:43.285Z,29.33
2023-03-03T19:09:53.522Z,32.88
2023-03-03T19:14:58.258Z,31.55
2023-03-03T19:20:05.669Z,37.13
2023-03-03T19:25:10.078Z,33.00
2023-03-03T19:30:29.148Z,32.95
2023-03-03T19:35:42.839Z,33.20
2023-03-03T19:41:22.151Z,34.05
2023-03-03T19:46:42.208Z,36.15
2023-03-03T19:51:52.789Z,37.30
2023-03-03T19:56:58.198Z,41.80
2023-03-03T20:02:23.400Z,39.42
2023-03-03T20:07:49.462Z,38.42
2023-03-03T20:13:06.594Z,43.35
2023-03-03T20:18:34.479Z,44.03
2023-03-03T20:23:54.111Z,36.92
2023-03-03T20:29:43.216Z,37.58
2023-03-03T20:35:23.540Z,36.65
2023-03-03T20:40:43.593Z,45.72
2023-03-03T20:45:53.986Z,43.90
2023-03-03T20:51:12.741Z,44.22
2023-03-03T20:56:39.272Z,46.42
2023-03-03T21:01:53.898Z,41.90
2023-03-03T21:06:56.091Z,47.80
2023-03-03T21:11:59.852Z,45.22
2023-03-03T21:17:24.681Z,45.65
2023-03-03T21:22:26.274Z,47.35
2023-03-03T21:27:30.882Z,50.58
2023-03-03T21:32:39.298Z,48.95
2023-03-03T21:37:50.986Z,44.00
2023-03-03T21:42:57.934Z,46.28
2023-03-03T21:48:02.461Z,44.35
2023-03-03T21:53:04.360Z,41.97
2023-03-03T21:58:05.923Z,42.08
2023-03-03T22:03:07.656Z,42.95
2023-03-03T22:08:09.597Z,40.80
2023-03-03T22:13:11.369Z,41.03
2023-03-03T22:18:13.510Z,39.20
2023-03-03T22:23:16.744Z,37.53
2023-03-03T22:28:18.479Z,36.45
2023-03-03T22:33:20.297Z,38.00
2023-03-03T22:38:22.054Z,35.33
2023-03-03T22:43:24.017Z,38.65
2023-03-03T22:48:27.540Z,36.83
2023-03-03T22:53:29.417Z,38.33
2023-03-03T22:58:31.128Z,36.25
2023-03-03T23:03:33.295Z,37.88
2023-03-03T23:08:35.169Z,39.08
2023-03-03T23:13:36.716Z,36.58
2023-03-03T23:18:38.587Z,35.63
2023-03-03T23:23:40.623Z,38.28
2023-03-03T23:28:42.303Z,36.58
2023-03-03T23:33:43.918Z,37.10
2023-03-03T23:38:45.913Z,39.60
2023-03-03T23:43:47.692Z,35.75
2023-03-03T23:48:49.465Z,38.88
2023-03-03T23:53:51.355Z,36.72
2023-03-03T23:58:53.118Z,40.38
